createdAt,value
2019-03-18T00:00:33.785Z,7.93
2019-03-18T00:03:05.394Z,16.33
2019-03-18T00:05:36.972Z,12.03
2019-03-18T00:08:08.471Z,7.97
2019-03-18T00:10:40.282Z,8.70
2019-03-18T00:13:11.716Z,5.80
2019-03-18T00:15:43.121Z,8.20
2019-03-18T00:18:14.547Z,6.83
2019-03-18T00:20:45.962Z,9.97
2019-03-18T00:23:17.423Z,13.00
2019-03-18T00:25:48.844Z,6.50
2019-03-18T00:28:20.257Z,7.20
2019-03-18T00:30:51.682Z,7.43
2019-03-18T00:33:23.145Z,9.03
2019-03-18T00:35:54.569Z,15.20
2019-03-18T00:38:26.005Z,5.73
2019-03-18T00:40:57.449Z,9.40
2019-03-18T00:43:28.925Z,5.80
2019-03-18T00:46:00.397Z,7.13
2019-03-18T00:48:31.813Z,8.30
2019-03-18T00:51:03.244Z,6.00
2019-03-18T00:53:34.642Z,8.07
2019-03-18T00:56:06.170Z,5.87
2019-03-18T00:58:37.627Z,19.40
2019-03-18T01:01:09.106Z,8.30
2019-03-18T01:03:40.465Z,7.50
2019-03-18T01:06:11.895Z,8.37
2019-03-18T01:08:43.338Z,3.57
2019-03-18T01:11:14.857Z,7.17
2019-03-18T01:13:46.297Z,4.10
2019-03-18T01:16:17.729Z,9.77
2019-03-18T01:18:49.146Z,10.27
2019-03-18T01:21:20.571Z,5.53
2019-03-18T01:23:51.958Z,6.77
2019-03-18T01:26:23.379Z,14.03
2019-03-18T01:28:54.774Z,5.13
2019-03-18T01:31:26.215Z,5.20
2019-03-18T01:33:57.641Z,6.90
2019-03-18T01:36:29.285Z,5.43
2019-03-18T01:39:00.740Z,5.10
2019-03-18T01:41:33.975Z,8.00
2019-03-18T01:44:05.393Z,6.50
2019-03-18T01:46:36.934Z,3.60
2019-03-18T01:49:08.337Z,8.20
2019-03-18T01:52:03.933Z,3.93
2019-03-18T01:54:38.623Z,2.47
2019-03-18T01:58:05.933Z,8.77
2019-03-18T02:00:41.960Z,6.93
2019-03-18T02:03:15.564Z,5.50
2019-03-18T02:05:46.958Z,4.50
2019-03-18T02:08:18.413Z,5.97
2019-03-18T02:10:50.952Z,7.13
2019-03-18T02:13:22.373Z,4.77
2019-03-18T02:15:54.063Z,7.03
2019-03-18T02:18:25.495Z,7.67
2019-03-18T02:20:56.866Z,4.60
2019-03-18T02:23:29.375Z,8.30
2019-03-18T02:26:00.748Z,9.07
2019-03-18T02:28:32.165Z,5.13
2019-03-18T02:31:03.573Z,7.90
2019-03-18T02:33:35.031Z,6.70
2019-03-18T02:36:06.442Z,7.53
2019-03-18T02:38:37.864Z,11.20
2019-03-18T02:41:09.243Z,6.77
2019-03-18T02:43:40.727Z,3.33
2019-03-18T02:46:12.165Z,6.30
2019-03-18T02:48:43.552Z,6.53
2019-03-18T02:51:14.923Z,15.57
2019-03-18T02:53:46.331Z,5.73
2019-03-18T02:56:17.696Z,11.87
2019-03-18T02:58:49.102Z,8.47
2019-03-18T03:01:20.485Z,9.00
2019-03-18T03:03:51.896Z,4.93
2019-03-18T03:06:23.394Z,7.87
2019-03-18T03:08:54.942Z,9.60
2019-03-18T03:11:26.281Z,8.13
2019-03-18T03:13:57.679Z,3.77
2019-03-18T03:16:29.076Z,8.67
2019-03-18T03:19:00.468Z,5.43
2019-03-18T03:21:31.834Z,6.13
2019-03-18T03:24:03.285Z,8.97
2019-03-18T03:26:34.717Z,12.00
2019-03-18T03:29:06.111Z,9.10
2019-03-18T03:31:37.513Z,7.67
2019-03-18T03:34:13.231Z,7.67
2019-03-18T03:36:42.131Z,7.20
2019-03-18T03:39:13.536Z,7.33
2019-03-18T03:41:44.931Z,4.57
2019-03-18T03:44:16.338Z,4.53
2019-03-18T03:46:47.721Z,5.73
2019-03-18T03:49:19.135Z,5.37
2019-03-18T03:51:50.508Z,12.30
2019-03-18T03:54:21.913Z,9.07
2019-03-18T03:56:53.580Z,6.37
2019-03-18T03:59:25.577Z,12.43
2019-03-18T04:01:56.939Z,8.60
2019-03-18T04:04:28.330Z,8.47
2019-03-18T04:06:59.722Z,10.07
2019-03-18T04:09:31.115Z,8.67
2019-03-18T04:12:02.513Z,14.97
2019-03-18T04:14:33.932Z,8.20
2019-03-18T04:17:05.289Z,11.60
2019-03-18T04:19:36.790Z,7.47
2019-03-18T04:22:08.143Z,11.20
2019-03-18T04:24:39.564Z,8.10
2019-03-18T04:27:10.938Z,6.57
2019-03-18T04:29:42.349Z,5.83
2019-03-18T04:32:13.850Z,7.93
2019-03-18T04:34:45.236Z,5.97
2019-03-18T04:37:16.620Z,12.33
2019-03-18T04:39:49.105Z,12.93
2019-03-18T04:42:20.509Z,10.10
2019-03-18T04:44:51.910Z,15.73
2019-03-18T04:47:23.310Z,7.37
2019-03-18T04:49:54.732Z,16.67
2019-03-18T04:52:26.108Z,14.77
2019-03-18T04:54:57.514Z,8.67
2019-03-18T04:57:28.894Z,9.57
2019-03-18T05:00:00.431Z,23.53
2019-03-18T05:02:31.748Z,12.33
2019-03-18T05:05:03.157Z,6.83
2019-03-18T05:07:34.522Z,9.40
2019-03-18T05:10:06.348Z,9.80
2019-03-18T05:12:37.806Z,10.57
2019-03-18T05:15:09.716Z,11.57
2019-03-18T05:17:42.053Z,7.63
2019-03-18T05:20:13.572Z,8.23
2019-03-18T05:22:45.078Z,11.00
2019-03-18T05:25:16.620Z,5.60
2019-03-18T05:27:48.138Z,16.47
2019-03-18T05:30:19.568Z,11.23
2019-03-18T05:32:50.959Z,13.87
2019-03-18T05:35:22.471Z,16.33
2019-03-18T05:37:53.927Z,9.93
2019-03-18T05:40:25.346Z,11.20
2019-03-18T05:42:56.735Z,10.50
2019-03-18T05:45:28.196Z,16.43
2019-03-18T05:47:59.596Z,13.93
2019-03-18T05:50:31.111Z,18.33
2019-03-18T05:53:02.586Z,16.67
2019-03-18T05:55:34.057Z,16.80
2019-03-18T05:58:05.462Z,19.13
2019-03-18T06:00:36.871Z,21.67
2019-03-18T06:03:08.422Z,25.50
2019-03-18T06:05:39.888Z,23.40
2019-03-18T06:08:11.780Z,16.50
2019-03-18T06:10:43.348Z,18.70
2019-03-18T06:13:14.706Z,27.93
2019-03-18T06:15:47.272Z,22.20
2019-03-18T06:18:19.681Z,17.80
2019-03-18T06:20:51.110Z,29.77
2019-03-18T06:23:22.513Z,23.70
2019-03-18T06:25:53.933Z,21.70
2019-03-18T06:28:25.347Z,27.00
2019-03-18T06:30:56.784Z,15.67
2019-03-18T06:33:29.714Z,17.13
2019-03-18T06:36:01.181Z,26.57
2019-03-18T06:38:32.598Z,26.67
2019-03-18T06:41:04.011Z,18.97
2019-03-18T06:43:35.409Z,24.47
2019-03-18T06:46:06.900Z,25.90
2019-03-18T06:48:38.355Z,29.83
2019-03-18T06:51:09.847Z,21.40
2019-03-18T06:53:41.263Z,15.03
2019-03-18T06:56:12.703Z,34.37
2019-03-18T06:58:44.091Z,29.97
2019-03-18T07:01:15.539Z,23.37
2019-03-18T07:03:46.972Z,26.10
2019-03-18T07:06:18.604Z,20.97
2019-03-18T07:08:50.003Z,22.57
2019-03-18T07:11:21.418Z,18.70
2019-03-18T07:13:52.795Z,27.07
2019-03-18T07:16:24.451Z,21.10
2019-03-18T07:18:55.863Z,27.67
2019-03-18T07:21:27.387Z,25.60
2019-03-18T07:23:58.777Z,18.47
2019-03-18T07:26:30.229Z,16.13
2019-03-18T07:29:01.717Z,24.80
2019-03-18T07:31:33.134Z,32.70
2019-03-18T07:34:04.535Z,25.37
2019-03-18T07:36:35.948Z,18.10
2019-03-18T07:39:08.309Z,28.03
2019-03-18T07:41:39.761Z,24.07
2019-03-18T07:44:11.157Z,29.37
2019-03-18T07:46:42.558Z,23.33
2019-03-18T07:49:14.049Z,24.87
2019-03-18T07:51:51.710Z,20.67
2019-03-18T07:54:32.240Z,23.63
2019-03-18T07:56:56.233Z,19.63
2019-03-18T07:59:27.798Z,22.63
2019-03-18T08:01:59.220Z,25.00
2019-03-18T08:04:37.355Z,20.67
2019-03-18T08:07:03.870Z,19.73
2019-03-18T08:09:35.473Z,23.83
2019-03-18T08:12:06.879Z,20.37
2019-03-18T08:14:38.295Z,20.00
2019-03-18T08:17:09.777Z,27.27
2019-03-18T08:19:41.160Z,11.13
2019-03-18T08:22:12.654Z,33.73
2019-03-18T08:24:44.167Z,20.93
2019-03-18T08:27:15.623Z,30.27
2019-03-18T08:29:47.031Z,18.53
2019-03-18T08:32:18.514Z,13.23
2019-03-18T08:34:50.006Z,16.97
2019-03-18T08:37:21.622Z,32.00
2019-03-18T08:39:53.039Z,21.50
2019-03-18T08:42:24.633Z,16.83
2019-03-18T08:44:56.162Z,11.87
2019-03-18T08:47:27.625Z,19.60
2019-03-18T08:49:59.124Z,18.87
2019-03-18T08:52:30.652Z,17.60
2019-03-18T08:55:02.312Z,21.80
2019-03-18T08:57:33.837Z,20.73
2019-03-18T09:00:06.446Z,25.00
2019-03-18T09:02:37.974Z,21.40
2019-03-18T09:05:09.912Z,13.83
2019-03-18T09:07:41.434Z,11.93
2019-03-18T09:10:13.412Z,21.90
2019-03-18T09:12:46.015Z,23.93
2019-03-18T09:15:17.568Z,33.97
2019-03-18T09:17:49.011Z,16.43
2019-03-18T09:20:20.618Z,18.30
2019-03-18T09:22:52.080Z,13.07
2019-03-18T09:25:23.528Z,18.87
2019-03-18T09:27:54.938Z,25.27
2019-03-18T09:30:26.436Z,12.43
2019-03-18T09:32:57.920Z,13.70
2019-03-18T09:35:29.433Z,24.80
2019-03-18T09:38:00.937Z,27.90
2019-03-18T09:40:32.436Z,13.63
2019-03-18T09:43:04.038Z,10.77
2019-03-18T09:45:35.467Z,12.53
2019-03-18T09:48:06.960Z,15.33
2019-03-18T09:50:38.372Z,12.80
2019-03-18T09:53:10.826Z,14.63
2019-03-18T09:55:42.298Z,10.33
2019-03-18T09:58:13.798Z,19.23
2019-03-18T10:00:45.417Z,11.20
2019-03-18T10:03:17.103Z,9.83
2019-03-18T10:05:48.547Z,19.23
2019-03-18T10:08:20.188Z,19.93
2019-03-18T10:10:51.664Z,21.87
2019-03-18T10:13:24.215Z,19.47
2019-03-18T10:15:59.039Z,16.80
2019-03-18T10:18:30.786Z,14.63
2019-03-18T10:21:02.326Z,19.07
2019-03-18T10:23:35.500Z,19.10
2019-03-18T10:26:07.726Z,22.70
2019-03-18T10:28:39.370Z,28.77
2019-03-18T10:31:10.975Z,23.80
2019-03-18T10:33:44.870Z,21.93
2019-03-18T10:36:15.768Z,23.53
2019-03-18T10:38:47.304Z,19.73
2019-03-18T10:41:18.858Z,33.53
2019-03-18T10:43:50.364Z,26.53
2019-03-18T10:46:21.930Z,14.90
2019-03-18T10:48:53.537Z,17.97
2019-03-18T10:51:25.074Z,19.77
2019-03-18T10:53:56.644Z,21.97
2019-03-18T10:56:28.094Z,12.67
2019-03-18T10:58:59.720Z,8.30
2019-03-18T11:01:31.210Z,4.57
2019-03-18T11:04:02.748Z,10.33
2019-03-18T11:06:34.230Z,19.50
2019-03-18T11:09:07.882Z,17.03
2019-03-18T11:11:39.303Z,27.90
2019-03-18T11:14:10.873Z,15.43
2019-03-18T11:16:43.590Z,24.03
2019-03-18T11:19:16.746Z,20.30
2019-03-18T11:21:48.192Z,27.63
2019-03-18T11:24:19.684Z,21.33
2019-03-18T11:26:51.112Z,23.63
2019-03-18T11:29:22.662Z,22.47
2019-03-18T11:31:54.074Z,23.70
2019-03-18T11:34:26.811Z,17.80
2019-03-18T11:36:58.217Z,7.10
2019-03-18T11:39:29.977Z,17.57
2019-03-18T11:42:01.523Z,8.30
2019-03-18T11:44:33.196Z,4.13
2019-03-18T11:47:04.672Z,11.73
2019-03-18T11:49:39.907Z,8.40
2019-03-18T11:52:09.331Z,10.77
2019-03-18T11:54:40.864Z,14.53
2019-03-18T11:57:12.292Z,8.20
2019-03-18T11:59:46.637Z,8.77
2019-03-18T12:02:27.226Z,6.30
2019-03-18T12:04:51.329Z,11.93
2019-03-18T12:07:24.455Z,7.13
2019-03-18T12:09:55.980Z,11.00
2019-03-18T12:12:27.357Z,12.30
2019-03-18T12:14:58.849Z,13.33
2019-03-18T12:17:30.281Z,22.03
2019-03-18T12:20:03.384Z,22.33
2019-03-18T12:22:35.732Z,18.53
2019-03-18T12:25:07.920Z,31.47
2019-03-18T12:27:39.321Z,35.53
2019-03-18T12:30:18.444Z,18.23
2019-03-18T12:32:49.932Z,29.00
2019-03-18T12:35:21.671Z,26.10
2019-03-18T12:37:54.348Z,17.77
2019-03-18T12:40:25.873Z,14.40
2019-03-18T12:42:57.411Z,18.30
2019-03-18T12:45:29.004Z,21.73
2019-03-18T12:48:00.553Z,24.23
2019-03-18T12:50:49.245Z,13.70
2019-03-18T12:53:05.411Z,19.40
2019-03-18T12:55:36.910Z,16.50
2019-03-18T12:58:08.468Z,20.70
2019-03-18T13:00:39.980Z,14.30
2019-03-18T13:03:11.381Z,15.87
2019-03-18T13:05:43.081Z,24.40
2019-03-18T13:08:14.513Z,29.70
2019-03-18T13:10:46.043Z,29.30
2019-03-18T13:13:17.525Z,13.80
2019-03-18T13:15:49.047Z,12.07
2019-03-18T13:18:20.533Z,23.70
2019-03-18T13:20:52.147Z,25.70
2019-03-18T13:23:38.032Z,19.60
2019-03-18T13:26:12.195Z,18.53
2019-03-18T13:28:43.617Z,27.30
2019-03-18T13:31:15.042Z,16.93
2019-03-18T13:33:46.473Z,17.43
2019-03-18T13:36:17.985Z,18.67
2019-03-18T13:38:50.711Z,19.33
2019-03-18T13:41:22.347Z,23.40
2019-03-18T13:43:53.763Z,17.10
2019-03-18T13:46:25.214Z,18.77
2019-03-18T13:48:56.621Z,25.53
2019-03-18T13:51:28.152Z,21.63
2019-03-18T13:53:59.895Z,24.03
2019-03-18T13:56:31.503Z,14.53
2019-03-18T13:59:03.068Z,13.67
2019-03-18T14:01:34.771Z,20.73
2019-03-18T14:04:06.307Z,28.67
2019-03-18T14:06:37.749Z,12.97
2019-03-18T14:09:09.842Z,31.53
2019-03-18T14:11:41.532Z,23.83
2019-03-18T14:14:13.259Z,24.47
2019-03-18T14:16:44.750Z,24.27
2019-03-18T14:19:16.348Z,6.90
2019-03-18T14:21:47.874Z,10.60
2019-03-18T14:24:20.817Z,13.20
2019-03-18T14:26:52.302Z,12.27
2019-03-18T14:29:23.832Z,31.70
2019-03-18T14:31:55.463Z,33.80
2019-03-18T14:34:26.967Z,15.00
2019-03-18T14:36:58.520Z,20.37
2019-03-18T14:39:30.078Z,16.33
2019-03-18T14:42:01.783Z,33.63
2019-03-18T14:44:33.353Z,23.03
2019-03-18T14:47:04.912Z,22.43
2019-03-18T14:49:36.442Z,25.80
2019-03-18T14:52:08.268Z,19.77
2019-03-18T14:54:39.841Z,24.50
2019-03-18T14:57:11.762Z,11.13
2019-03-18T14:59:43.301Z,20.63
2019-03-18T15:02:18.246Z,14.53
2019-03-18T15:04:49.738Z,31.53
2019-03-18T15:07:21.295Z,19.23
2019-03-18T15:09:52.760Z,22.37
2019-03-18T15:12:24.214Z,7.13
2019-03-18T15:14:55.628Z,24.80
2019-03-18T15:17:30.390Z,15.40
2019-03-18T15:20:05.394Z,23.70
2019-03-18T15:22:36.997Z,18.20
2019-03-18T15:25:12.804Z,25.37
2019-03-18T15:27:44.258Z,13.67
2019-03-18T15:30:19.192Z,11.90
2019-03-18T15:32:50.750Z,13.30
2019-03-18T15:35:22.194Z,18.67
2019-03-18T15:37:53.708Z,22.93
2019-03-18T15:40:25.223Z,12.83
2019-03-18T15:42:56.914Z,18.50
2019-03-18T15:45:28.441Z,17.47
2019-03-18T15:48:00.065Z,10.33
2019-03-18T15:50:31.573Z,25.57
2019-03-18T15:53:03.066Z,17.43
2019-03-18T15:55:34.628Z,23.23
2019-03-18T15:58:06.189Z,24.73
2019-03-18T16:00:37.759Z,27.57
2019-03-18T16:03:09.244Z,21.47
2019-03-18T16:05:40.763Z,27.60
2019-03-18T16:08:12.244Z,26.40
2019-03-18T16:10:43.762Z,29.23
2019-03-18T16:13:15.220Z,24.70
2019-03-18T16:15:46.696Z,17.87
2019-03-18T16:18:19.249Z,10.13
2019-03-18T16:20:50.842Z,9.40
2019-03-18T16:23:22.341Z,12.93
2019-03-18T16:25:53.972Z,14.37
2019-03-18T16:28:25.436Z,14.20
2019-03-18T16:30:56.904Z,13.73
2019-03-18T16:33:28.323Z,22.43
2019-03-18T16:35:59.951Z,21.43
2019-03-18T16:38:32.584Z,18.90
2019-03-18T16:41:04.148Z,23.03
2019-03-18T16:43:35.670Z,14.47
2019-03-18T16:46:08.108Z,20.53
2019-03-18T16:48:39.654Z,18.60
2019-03-18T16:51:11.152Z,17.73
2019-03-18T16:53:42.675Z,12.27
2019-03-18T16:56:15.187Z,25.50
2019-03-18T16:58:46.678Z,17.50
2019-03-18T17:01:18.147Z,18.83
2019-03-18T17:03:50.584Z,39.67
2019-03-18T17:06:22.086Z,26.93
2019-03-18T17:08:53.545Z,18.87
2019-03-18T17:11:25.137Z,31.63
2019-03-18T17:13:56.706Z,27.87
2019-03-18T17:16:28.228Z,26.17
2019-03-18T17:18:59.802Z,21.93
2019-03-18T17:21:31.327Z,23.30
2019-03-18T17:24:03.050Z,29.63
2019-03-18T17:26:34.524Z,21.67
2019-03-18T17:29:06.080Z,24.73
2019-03-18T17:31:37.630Z,29.93
2019-03-18T17:34:09.226Z,28.00
2019-03-18T17:36:40.808Z,25.50
2019-03-18T17:39:14.626Z,15.90
2019-03-18T17:41:45.637Z,40.33
2019-03-18T17:44:19.006Z,23.53
2019-03-18T17:46:53.000Z,24.17
2019-03-18T17:49:24.574Z,35.93
2019-03-18T17:51:56.097Z,24.13
2019-03-18T17:54:27.646Z,15.47
2019-03-18T17:57:07.319Z,25.07
2019-03-18T18:02:54.659Z,25.40
2019-03-18T18:05:26.106Z,22.20
2019-03-18T18:07:57.612Z,15.40
2019-03-18T18:10:29.231Z,13.00
2019-03-18T18:13:01.930Z,10.07
2019-03-18T18:15:33.421Z,9.87
2019-03-18T18:18:18.285Z,11.77
2019-03-18T18:20:49.814Z,10.33
2019-03-18T18:23:21.361Z,10.50
2019-03-18T18:25:52.916Z,8.83
2019-03-18T18:28:24.301Z,9.77
2019-03-18T18:30:55.749Z,11.43
2019-03-18T18:33:27.350Z,9.37
2019-03-18T18:35:58.931Z,19.90
2019-03-18T18:38:30.515Z,19.33
2019-03-18T18:41:02.025Z,17.77
2019-03-18T18:43:33.582Z,15.53
2019-03-18T18:46:06.152Z,26.57
2019-03-18T18:48:37.699Z,18.53
2019-03-18T18:51:09.272Z,27.87
2019-03-18T18:53:41.001Z,34.73
2019-03-18T18:56:12.554Z,25.37
2019-03-18T18:58:44.401Z,17.90
2019-03-18T19:01:15.910Z,27.77
2019-03-18T19:03:47.406Z,20.50
2019-03-18T19:06:19.322Z,20.60
2019-03-18T19:08:50.924Z,15.47
2019-03-18T19:11:22.489Z,14.83
2019-03-18T19:13:54.062Z,14.23
2019-03-18T19:16:25.781Z,14.73
2019-03-18T19:18:58.123Z,20.97
2019-03-18T19:21:29.919Z,12.13
2019-03-18T19:24:01.613Z,24.37
2019-03-18T19:26:33.240Z,19.40
2019-03-18T19:29:04.877Z,14.60
2019-03-18T19:31:37.704Z,18.10
2019-03-18T19:34:09.335Z,27.53
2019-03-18T19:36:40.839Z,25.80
2019-03-18T19:39:12.262Z,19.70
2019-03-18T19:41:43.784Z,13.23
2019-03-18T19:44:16.267Z,20.27
2019-03-18T19:46:51.848Z,19.90
2019-03-18T19:49:23.651Z,11.70
2019-03-18T19:51:55.186Z,24.87
2019-03-18T19:54:26.762Z,19.70
2019-03-18T19:56:58.368Z,13.50
2019-03-18T19:59:29.845Z,28.17
2019-03-18T20:02:01.426Z,34.67
2019-03-18T20:04:34.801Z,23.87
2019-03-18T20:07:06.350Z,25.00
2019-03-18T20:09:37.803Z,28.40
2019-03-18T20:12:09.520Z,17.83
2019-03-18T20:14:41.120Z,28.87
2019-03-18T20:17:12.688Z,20.03
2019-03-18T20:19:44.266Z,22.57
2019-03-18T20:22:15.875Z,15.33
2019-03-18T20:24:47.427Z,23.43
2019-03-18T20:27:19.016Z,23.53
2019-03-18T20:29:50.529Z,18.23
2019-03-18T20:32:22.096Z,28.50
2019-03-18T20:34:53.670Z,31.00
2019-03-18T20:37:25.282Z,19.17
2019-03-18T20:39:56.826Z,18.23
2019-03-18T20:42:28.410Z,15.93
2019-03-18T20:44:59.952Z,28.50
2019-03-18T20:47:31.778Z,20.40
2019-03-18T20:50:03.370Z,27.50
2019-03-18T20:52:35.107Z,22.00
2019-03-18T20:55:07.773Z,18.07
2019-03-18T20:57:39.308Z,35.43
2019-03-18T21:00:12.609Z,28.57
2019-03-18T21:02:44.473Z,20.07
2019-03-18T21:05:15.987Z,21.20
2019-03-18T21:07:47.558Z,15.43
2019-03-18T21:10:19.173Z,18.90
2019-03-18T21:12:50.731Z,23.37
2019-03-18T21:15:22.231Z,21.60
2019-03-18T21:17:53.773Z,28.33
2019-03-18T21:20:25.242Z,19.87
2019-03-18T21:22:57.966Z,27.53
2019-03-18T21:25:29.423Z,20.40
2019-03-18T21:28:00.919Z,21.00
2019-03-18T21:30:32.451Z,27.20
2019-03-18T21:33:04.132Z,14.20
2019-03-18T21:35:35.619Z,22.33
2019-03-18T21:38:07.221Z,21.30
2019-03-18T21:40:38.705Z,17.43
2019-03-18T21:43:10.260Z,17.97
2019-03-18T21:45:41.690Z,18.33
2019-03-18T21:48:15.206Z,24.43
2019-03-18T21:50:49.184Z,30.93
2019-03-18T21:53:20.754Z,16.53
2019-03-18T21:55:52.285Z,24.17
2019-03-18T21:58:23.755Z,36.60
2019-03-18T22:00:55.164Z,23.30
2019-03-18T22:03:26.813Z,32.80
2019-03-18T22:06:00.757Z,15.23
2019-03-18T22:08:33.520Z,19.60
2019-03-18T22:11:05.166Z,23.23
2019-03-18T22:13:36.669Z,26.67
2019-03-18T22:16:08.168Z,27.13
2019-03-18T22:18:39.775Z,27.13
2019-03-18T22:21:11.280Z,20.10
2019-03-18T22:23:42.900Z,45.87
2019-03-18T22:26:14.464Z,30.43
2019-03-18T22:28:46.462Z,27.60
2019-03-18T22:31:17.911Z,23.60
2019-03-18T22:33:49.746Z,20.77
2019-03-18T22:36:21.283Z,30.37
2019-03-18T22:38:52.784Z,21.00
2019-03-18T22:41:25.210Z,35.37
2019-03-18T22:43:56.777Z,19.37
2019-03-18T22:46:28.289Z,20.20
2019-03-18T22:48:59.857Z,26.57
2019-03-18T22:51:31.476Z,22.67
2019-03-18T22:54:03.026Z,13.70
2019-03-18T22:56:34.596Z,18.20
2019-03-18T22:59:06.207Z,19.07
2019-03-18T23:01:37.712Z,20.30
2019-03-18T23:04:09.291Z,23.50
2019-03-18T23:06:40.952Z,14.83
2019-03-18T23:09:12.548Z,21.40
2019-03-18T23:11:46.364Z,20.87
2019-03-18T23:14:17.825Z,19.73
2019-03-18T23:16:49.266Z,20.83
2019-03-18T23:19:21.120Z,37.10
2019-03-18T23:21:53.645Z,24.60
2019-03-18T23:24:26.398Z,23.80
2019-03-18T23:26:57.792Z,27.23
2019-03-18T23:29:29.218Z,17.93
2019-03-18T23:32:00.935Z,22.23
2019-03-18T23:34:32.372Z,30.23
2019-03-18T23:37:03.880Z,53.30
2019-03-18T23:39:35.276Z,28.33
2019-03-18T23:42:06.700Z,21.13
2019-03-18T23:44:38.154Z,27.23
2019-03-18T23:47:09.586Z,29.73
2019-03-18T23:49:41.032Z,25.63
2019-03-18T23:52:12.410Z,28.97
2019-03-18T23:54:43.838Z,24.53
2019-03-18T23:57:15.224Z,13.87
2019-03-18T23:59:46.634Z,28.93
